sensor_id;sensor_type;location;lat;lon;timestamp;temperature;humidity
40059;SHT31;25763;49.972;8.568;2023-10-19T00:00:37;11.21;90.61
40059;SHT31;25763;49.972;8.568;2023-10-19T00:03:12;11.31;90.62
40059;SHT31;25763;49.972;8.568;2023-10-19T00:05:38;11.29;90.72
40059;SHT31;25763;49.972;8.568;2023-10-19T00:08:06;11.34;90.76
40059;SHT31;25763;49.972;8.568;2023-10-19T00:10:45;11.36;90.64
40059;SHT31;25763;49.972;8.568;2023-10-19T00:13:14;11.42;90.49
40059;SHT31;25763;49.972;8.568;2023-10-19T00:15:41;11.45;90.32
40059;SHT31;25763;49.972;8.568;2023-10-19T00:18:13;11.49;90.34
40059;SHT31;25763;49.972;8.568;2023-10-19T00:20:45;11.55;90.10
40059;SHT31;25763;49.972;8.568;2023-10-19T00:23:14;11.52;90.11
40059;SHT31;25763;49.972;8.568;2023-10-19T00:25:44;11.63;89.95
40059;SHT31;25763;49.972;8.568;2023-10-19T00:28:14;11.67;89.65
40059;SHT31;25763;49.972;8.568;2023-10-19T00:30:42;11.73;89.36
40059;SHT31;25763;49.972;8.568;2023-10-19T00:33:08;11.79;89.12
40059;SHT31;25763;49.972;8.568;2023-10-19T00:35:54;11.83;88.80
40059;SHT31;25763;49.972;8.568;2023-10-19T00:38:36;11.80;88.85
40059;SHT31;25763;49.972;8.568;2023-10-19T00:41:02;11.84;88.61
40059;SHT31;25763;49.972;8.568;2023-10-19T00:43:35;11.79;88.57
40059;SHT31;25763;49.972;8.568;2023-10-19T00:46:17;11.80;88.88
40059;SHT31;25763;49.972;8.568;2023-10-19T00:48:45;11.86;88.62
40059;SHT31;25763;49.972;8.568;2023-10-19T00:51:12;11.88;88.38
40059;SHT31;25763;49.972;8.568;2023-10-19T00:53:54;11.88;88.32
40059;SHT31;25763;49.972;8.568;2023-10-19T00:56:20;11.76;88.86
40059;SHT31;25763;49.972;8.568;2023-10-19T00:58:49;11.79;88.83
40059;SHT31;25763;49.972;8.568;2023-10-19T01:01:23;11.76;88.97
40059;SHT31;25763;49.972;8.568;2023-10-19T01:03:50;11.81;88.94
40059;SHT31;25763;49.972;8.568;2023-10-19T01:06:24;11.74;88.79
40059;SHT31;25763;49.972;8.568;2023-10-19T01:08:50;11.62;89.31
40059;SHT31;25763;49.972;8.568;2023-10-19T01:11:17;11.55;89.63
40059;SHT31;25763;49.972;8.568;2023-10-19T01:13:47;11.55;89.83
40059;SHT31;25763;49.972;8.568;2023-10-19T01:16:17;11.62;89.86
40059;SHT31;25763;49.972;8.568;2023-10-19T01:18:51;11.65;89.89
40059;SHT31;25763;49.972;8.568;2023-10-19T01:21:22;11.65;89.70
40059;SHT31;25763;49.972;8.568;2023-10-19T01:23:50;11.69;89.83
40059;SHT31;25763;49.972;8.568;2023-10-19T01:26:15;11.77;89.50
40059;SHT31;25763;49.972;8.568;2023-10-19T01:28:51;11.70;89.79
40059;SHT31;25763;49.972;8.568;2023-10-19T01:31:26;11.66;89.84
40059;SHT31;25763;49.972;8.568;2023-10-19T01:33:55;11.63;90.05
40059;SHT31;25763;49.972;8.568;2023-10-19T01:36:24;11.74;90.13
40059;SHT31;25763;49.972;8.568;2023-10-19T01:38:54;11.80;89.83
40059;SHT31;25763;49.972;8.568;2023-10-19T01:41:22;11.84;89.57
40059;SHT31;25763;49.972;8.568;2023-10-19T01:43:49;11.90;89.43
40059;SHT31;25763;49.972;8.568;2023-10-19T01:46:16;11.94;89.29
40059;SHT31;25763;49.972;8.568;2023-10-19T01:48:51;11.98;89.03
40059;SHT31;25763;49.972;8.568;2023-10-19T01:51:22;11.99;88.88
40059;SHT31;25763;49.972;8.568;2023-10-19T01:53:48;12.05;88.71
40059;SHT31;25763;49.972;8.568;2023-10-19T01:56:15;12.09;88.52
40059;SHT31;25763;49.972;8.568;2023-10-19T01:58:43;12.17;88.36
40059;SHT31;25763;49.972;8.568;2023-10-19T02:01:09;12.06;88.49
40059;SHT31;25763;49.972;8.568;2023-10-19T02:03:42;12.11;88.58
40059;SHT31;25763;49.972;8.568;2023-10-19T02:06:08;12.17;88.32
40059;SHT31;25763;49.972;8.568;2023-10-19T02:08:50;12.18;88.15
40059;SHT31;25763;49.972;8.568;2023-10-19T02:11:20;12.21;88.03
40059;SHT31;25763;49.972;8.568;2023-10-19T02:13:48;12.24;87.93
40059;SHT31;25763;49.972;8.568;2023-10-19T02:16:15;12.26;87.97
40059;SHT31;25763;49.972;8.568;2023-10-19T02:18:42;12.29;87.85
40059;SHT31;25763;49.972;8.568;2023-10-19T02:21:08;12.29;87.82
40059;SHT31;25763;49.972;8.568;2023-10-19T02:23:40;12.26;87.91
40059;SHT31;25763;49.972;8.568;2023-10-19T02:26:09;12.30;87.79
40059;SHT31;25763;49.972;8.568;2023-10-19T02:28:38;12.28;88.26
40059;SHT31;25763;49.972;8.568;2023-10-19T02:31:05;12.35;88.20
40059;SHT31;25763;49.972;8.568;2023-10-19T02:33:41;12.35;88.27
40059;SHT31;25763;49.972;8.568;2023-10-19T02:36:11;12.42;88.48
40059;SHT31;25763;49.972;8.568;2023-10-19T02:38:39;12.46;88.71
40059;SHT31;25763;49.972;8.568;2023-10-19T02:41:04;12.49;88.63
40059;SHT31;25763;49.972;8.568;2023-10-19T02:43:30;12.56;88.86
40059;SHT31;25763;49.972;8.568;2023-10-19T02:45:59;12.55;89.11
40059;SHT31;25763;49.972;8.568;2023-10-19T02:48:25;12.56;89.19
40059;SHT31;25763;49.972;8.568;2023-10-19T02:50:50;12.63;89.57
40059;SHT31;25763;49.972;8.568;2023-10-19T02:53:15;12.63;89.68
40059;SHT31;25763;49.972;8.568;2023-10-19T02:55:44;12.67;89.63
40059;SHT31;25763;49.972;8.568;2023-10-19T02:58:09;12.67;89.72
40059;SHT31;25763;49.972;8.568;2023-10-19T03:00:37;12.68;89.89
40059;SHT31;25763;49.972;8.568;2023-10-19T03:03:02;12.68;90.04
40059;SHT31;25763;49.972;8.568;2023-10-19T03:05:30;12.77;89.99
40059;SHT31;25763;49.972;8.568;2023-10-19T03:07:56;12.75;90.16
40059;SHT31;25763;49.972;8.568;2023-10-19T03:10:22;12.78;90.14
40059;SHT31;25763;49.972;8.568;2023-10-19T03:13:00;12.78;90.19
40059;SHT31;25763;49.972;8.568;2023-10-19T03:15:26;12.75;90.36
40059;SHT31;25763;49.972;8.568;2023-10-19T03:17:55;12.80;90.38
40059;SHT31;25763;49.972;8.568;2023-10-19T03:20:21;12.81;90.28
40059;SHT31;25763;49.972;8.568;2023-10-19T03:22:49;12.81;90.18
40059;SHT31;25763;49.972;8.568;2023-10-19T03:25:15;12.82;90.25
40059;SHT31;25763;49.972;8.568;2023-10-19T03:27:59;12.81;90.33
40059;SHT31;25763;49.972;8.568;2023-10-19T03:30:34;12.84;90.30
40059;SHT31;25763;49.972;8.568;2023-10-19T03:33:05;12.87;90.28
40059;SHT31;25763;49.972;8.568;2023-10-19T03:35:30;12.85;90.32
40059;SHT31;25763;49.972;8.568;2023-10-19T03:37:56;12.81;90.45
40059;SHT31;25763;49.972;8.568;2023-10-19T03:40:23;12.85;90.36
40059;SHT31;25763;49.972;8.568;2023-10-19T03:42:59;12.87;90.37
40059;SHT31;25763;49.972;8.568;2023-10-19T03:45:24;12.84;90.35
40059;SHT31;25763;49.972;8.568;2023-10-19T03:47:51;12.81;90.48
40059;SHT31;25763;49.972;8.568;2023-10-19T03:50:19;12.80;90.51
40059;SHT31;25763;49.972;8.568;2023-10-19T03:52:47;12.77;90.62
40059;SHT31;25763;49.972;8.568;2023-10-19T03:55:12;12.80;90.55
40059;SHT31;25763;49.972;8.568;2023-10-19T03:57:43;12.80;90.57
40059;SHT31;25763;49.972;8.568;2023-10-19T04:00:12;12.80;90.57
40059;SHT31;25763;49.972;8.568;2023-10-19T04:02:41;12.78;90.60
40059;SHT31;25763;49.972;8.568;2023-10-19T04:05:08;12.81;90.70
40059;SHT31;25763;49.972;8.568;2023-10-19T04:07:35;12.81;90.64
40059;SHT31;25763;49.972;8.568;2023-10-19T04:10:01;12.82;90.58
40059;SHT31;25763;49.972;8.568;2023-10-19T04:12:39;12.89;90.44
40059;SHT31;25763;49.972;8.568;2023-10-19T04:15:08;12.84;90.33
40059;SHT31;25763;49.972;8.568;2023-10-19T04:17:36;12.84;90.31
40059;SHT31;25763;49.972;8.568;2023-10-19T04:20:04;12.89;90.33
40059;SHT31;25763;49.972;8.568;2023-10-19T04:22:49;12.88;90.20
40059;SHT31;25763;49.972;8.568;2023-10-19T04:25:16;12.85;90.22
40059;SHT31;25763;49.972;8.568;2023-10-19T04:27:44;12.82;90.32
40059;SHT31;25763;49.972;8.568;2023-10-19T04:30:10;12.85;90.26
40059;SHT31;25763;49.972;8.568;2023-10-19T04:32:42;12.85;90.31
40059;SHT31;25763;49.972;8.568;2023-10-19T04:35:07;12.91;90.32
40059;SHT31;25763;49.972;8.568;2023-10-19T04:37:35;12.91;90.26
40059;SHT31;25763;49.972;8.568;2023-10-19T04:40:00;12.89;90.20
40059;SHT31;25763;49.972;8.568;2023-10-19T04:42:26;12.92;90.13
40059;SHT31;25763;49.972;8.568;2023-10-19T04:44:54;12.95;90.08
40059;SHT31;25763;49.972;8.568;2023-10-19T04:47:19;12.97;89.89
40059;SHT31;25763;49.972;8.568;2023-10-19T04:49:45;12.94;90.04
40059;SHT31;25763;49.972;8.568;2023-10-19T04:52:10;12.88;90.15
40059;SHT31;25763;49.972;8.568;2023-10-19T04:54:35;12.92;90.21
40059;SHT31;25763;49.972;8.568;2023-10-19T04:57:02;12.92;90.22
40059;SHT31;25763;49.972;8.568;2023-10-19T04:59:28;12.95;90.21
40059;SHT31;25763;49.972;8.568;2023-10-19T05:01:58;12.92;90.30
40059;SHT31;25763;49.972;8.568;2023-10-19T05:04:24;12.94;90.37
40059;SHT31;25763;49.972;8.568;2023-10-19T05:06:49;12.94;90.30
40059;SHT31;25763;49.972;8.568;2023-10-19T05:09:14;12.94;90.31
40059;SHT31;25763;49.972;8.568;2023-10-19T05:11:40;12.95;90.39
40059;SHT31;25763;49.972;8.568;2023-10-19T05:14:05;12.91;90.43
40059;SHT31;25763;49.972;8.568;2023-10-19T05:16:31;12.89;90.75
40059;SHT31;25763;49.972;8.568;2023-10-19T05:18:56;12.84;90.93
40059;SHT31;25763;49.972;8.568;2023-10-19T05:21:22;12.87;91.04
40059;SHT31;25763;49.972;8.568;2023-10-19T05:23:47;12.81;91.02
40059;SHT31;25763;49.972;8.568;2023-10-19T05:26:13;12.84;91.15
40059;SHT31;25763;49.972;8.568;2023-10-19T05:28:40;12.84;91.14
40059;SHT31;25763;49.972;8.568;2023-10-19T05:31:08;12.85;91.23
40059;SHT31;25763;49.972;8.568;2023-10-19T05:33:33;12.89;91.10
40059;SHT31;25763;49.972;8.568;2023-10-19T05:35:59;12.91;91.01
40059;SHT31;25763;49.972;8.568;2023-10-19T05:38:26;12.91;90.87
40059;SHT31;25763;49.972;8.568;2023-10-19T05:40:52;12.94;90.82
40059;SHT31;25763;49.972;8.568;2023-10-19T05:43:17;12.95;90.72
40059;SHT31;25763;49.972;8.568;2023-10-19T05:45:43;12.98;90.78
40059;SHT31;25763;49.972;8.568;2023-10-19T05:48:08;12.97;90.65
40059;SHT31;25763;49.972;8.568;2023-10-19T05:50:35;12.94;90.88
40059;SHT31;25763;49.972;8.568;2023-10-19T05:53:04;13.01;90.84
40059;SHT31;25763;49.972;8.568;2023-10-19T05:55:30;12.95;90.92
40059;SHT31;25763;49.972;8.568;2023-10-19T05:57:56;12.98;90.84
40059;SHT31;25763;49.972;8.568;2023-10-19T06:00:22;12.99;90.83
40059;SHT31;25763;49.972;8.568;2023-10-19T06:02:51;13.01;90.76
40059;SHT31;25763;49.972;8.568;2023-10-19T06:05:17;13.05;90.81
40059;SHT31;25763;49.972;8.568;2023-10-19T06:07:48;13.06;90.80
40059;SHT31;25763;49.972;8.568;2023-10-19T06:10:18;13.09;90.75
40059;SHT31;25763;49.972;8.568;2023-10-19T06:12:46;13.05;90.74
40059;SHT31;25763;49.972;8.568;2023-10-19T06:15:13;13.11;90.64
40059;SHT31;25763;49.972;8.568;2023-10-19T06:17:42;13.11;90.67
40059;SHT31;25763;49.972;8.568;2023-10-19T06:20:09;13.08;90.73
40059;SHT31;25763;49.972;8.568;2023-10-19T06:22:46;13.14;90.79
40059;SHT31;25763;49.972;8.568;2023-10-19T06:25:16;13.20;90.67
40059;SHT31;25763;49.972;8.568;2023-10-19T06:27:43;13.15;90.62
40059;SHT31;25763;49.972;8.568;2023-10-19T06:30:09;13.16;90.69
40059;SHT31;25763;49.972;8.568;2023-10-19T06:32:35;13.14;90.64
40059;SHT31;25763;49.972;8.568;2023-10-19T06:35:01;13.19;90.66
40059;SHT31;25763;49.972;8.568;2023-10-19T06:37:27;13.18;90.79
40059;SHT31;25763;49.972;8.568;2023-10-19T06:39:52;13.24;90.69
40059;SHT31;25763;49.972;8.568;2023-10-19T06:42:18;13.27;90.56
40059;SHT31;25763;49.972;8.568;2023-10-19T06:44:43;13.30;90.48
40059;SHT31;25763;49.972;8.568;2023-10-19T06:47:09;13.32;90.50
40059;SHT31;25763;49.972;8.568;2023-10-19T06:49:35;13.36;90.40
40059;SHT31;25763;49.972;8.568;2023-10-19T06:52:01;13.41;90.37
40059;SHT31;25763;49.972;8.568;2023-10-19T06:54:26;13.47;90.26
40059;SHT31;25763;49.972;8.568;2023-10-19T06:56:53;13.46;90.26
40059;SHT31;25763;49.972;8.568;2023-10-19T06:59:18;13.44;90.34
40059;SHT31;25763;49.972;8.568;2023-10-19T07:01:44;13.46;90.33
40059;SHT31;25763;49.972;8.568;2023-10-19T07:04:09;13.51;90.28
40059;SHT31;25763;49.972;8.568;2023-10-19T07:06:34;13.48;90.23
40059;SHT31;25763;49.972;8.568;2023-10-19T07:09:00;13.58;90.26
40059;SHT31;25763;49.972;8.568;2023-10-19T07:11:29;13.57;90.27
40059;SHT31;25763;49.972;8.568;2023-10-19T07:13:54;13.62;90.21
40059;SHT31;25763;49.972;8.568;2023-10-19T07:16:19;13.64;90.14
40059;SHT31;25763;49.972;8.568;2023-10-19T07:18:45;13.65;90.10
40059;SHT31;25763;49.972;8.568;2023-10-19T07:21:11;13.65;90.01
40059;SHT31;25763;49.972;8.568;2023-10-19T07:23:37;13.62;90.09
40059;SHT31;25763;49.972;8.568;2023-10-19T07:26:03;13.61;90.35
40059;SHT31;25763;49.972;8.568;2023-10-19T07:28:29;13.62;90.34
40059;SHT31;25763;49.972;8.568;2023-10-19T07:30:55;13.67;90.45
40059;SHT31;25763;49.972;8.568;2023-10-19T07:33:21;13.73;90.37
40059;SHT31;25763;49.972;8.568;2023-10-19T07:35:48;13.78;90.17
40059;SHT31;25763;49.972;8.568;2023-10-19T07:38:18;13.82;90.10
40059;SHT31;25763;49.972;8.568;2023-10-19T07:40:46;13.85;89.96
40059;SHT31;25763;49.972;8.568;2023-10-19T07:43:12;13.86;89.93
40059;SHT31;25763;49.972;8.568;2023-10-19T07:45:37;13.82;89.99
40059;SHT31;25763;49.972;8.568;2023-10-19T07:48:04;13.91;89.93
40059;SHT31;25763;49.972;8.568;2023-10-19T07:50:35;13.99;89.91
40059;SHT31;25763;49.972;8.568;2023-10-19T07:53:02;14.10;89.77
40059;SHT31;25763;49.972;8.568;2023-10-19T07:55:28;14.21;89.61
40059;SHT31;25763;49.972;8.568;2023-10-19T07:57:54;14.34;89.43
40059;SHT31;25763;49.972;8.568;2023-10-19T08:00:20;14.44;89.19
40059;SHT31;25763;49.972;8.568;2023-10-19T08:02:46;14.47;89.01
40059;SHT31;25763;49.972;8.568;2023-10-19T08:05:16;14.42;88.72
40059;SHT31;25763;49.972;8.568;2023-10-19T08:07:43;14.51;88.60
40059;SHT31;25763;49.972;8.568;2023-10-19T08:10:11;14.45;88.34
40059;SHT31;25763;49.972;8.568;2023-10-19T08:12:40;14.40;88.34
40059;SHT31;25763;49.972;8.568;2023-10-19T08:15:09;14.41;88.42
40059;SHT31;25763;49.972;8.568;2023-10-19T08:17:40;14.40;88.51
40059;SHT31;25763;49.972;8.568;2023-10-19T08:20:06;14.31;88.68
40059;SHT31;25763;49.972;8.568;2023-10-19T08:22:36;14.51;88.63
40059;SHT31;25763;49.972;8.568;2023-10-19T08:25:05;14.58;88.58
40059;SHT31;25763;49.972;8.568;2023-10-19T08:27:38;14.68;88.50
40059;SHT31;25763;49.972;8.568;2023-10-19T08:30:06;14.73;88.41
40059;SHT31;25763;49.972;8.568;2023-10-19T08:32:34;14.83;88.42
40059;SHT31;25763;49.972;8.568;2023-10-19T08:35:00;14.93;88.22
40059;SHT31;25763;49.972;8.568;2023-10-19T08:37:26;14.94;88.08
40059;SHT31;25763;49.972;8.568;2023-10-19T08:39:51;14.82;87.89
40059;SHT31;25763;49.972;8.568;2023-10-19T08:42:17;14.93;87.89
40059;SHT31;25763;49.972;8.568;2023-10-19T08:44:42;14.97;87.87
40059;SHT31;25763;49.972;8.568;2023-10-19T08:47:08;15.03;87.77
40059;SHT31;25763;49.972;8.568;2023-10-19T08:49:33;14.97;87.78
40059;SHT31;25763;49.972;8.568;2023-10-19T08:52:00;15.15;87.70
40059;SHT31;25763;49.972;8.568;2023-10-19T08:54:29;15.27;87.42
40059;SHT31;25763;49.972;8.568;2023-10-19T08:56:55;15.39;87.11
40059;SHT31;25763;49.972;8.568;2023-10-19T08:59:21;15.42;86.84
40059;SHT31;25763;49.972;8.568;2023-10-19T09:01:46;15.44;86.63
40059;SHT31;25763;49.972;8.568;2023-10-19T09:04:12;15.46;86.53
40059;SHT31;25763;49.972;8.568;2023-10-19T09:06:42;15.61;86.45
40059;SHT31;25763;49.972;8.568;2023-10-19T09:09:16;15.66;86.35
40059;SHT31;25763;49.972;8.568;2023-10-19T09:11:44;15.81;86.24
40059;SHT31;25763;49.972;8.568;2023-10-19T09:14:12;15.77;85.94
40059;SHT31;25763;49.972;8.568;2023-10-19T09:16:38;15.74;85.86
40059;SHT31;25763;49.972;8.568;2023-10-19T09:19:20;16.07;85.85
40059;SHT31;25763;49.972;8.568;2023-10-19T09:21:45;16.11;85.45
40059;SHT31;25763;49.972;8.568;2023-10-19T09:24:11;16.05;85.44
40059;SHT31;25763;49.972;8.568;2023-10-19T09:26:37;15.90;85.50
40059;SHT31;25763;49.972;8.568;2023-10-19T09:29:02;15.96;85.66
40059;SHT31;25763;49.972;8.568;2023-10-19T09:31:28;16.20;85.93
40059;SHT31;25763;49.972;8.568;2023-10-19T09:33:56;16.42;85.70
40059;SHT31;25763;49.972;8.568;2023-10-19T09:36:29;16.59;85.35
40059;SHT31;25763;49.972;8.568;2023-10-19T09:38:55;16.80;84.89
40059;SHT31;25763;49.972;8.568;2023-10-19T09:41:23;16.74;84.24
40059;SHT31;25763;49.972;8.568;2023-10-19T09:43:57;16.73;84.24
40059;SHT31;25763;49.972;8.568;2023-10-19T09:46:26;16.90;84.11
40059;SHT31;25763;49.972;8.568;2023-10-19T09:48:54;16.88;83.92
40059;SHT31;25763;49.972;8.568;2023-10-19T09:51:21;17.02;84.09
40059;SHT31;25763;49.972;8.568;2023-10-19T09:54:12;17.33;83.80
40059;SHT31;25763;49.972;8.568;2023-10-19T09:56:42;17.43;83.26
40059;SHT31;25763;49.972;8.568;2023-10-19T09:59:46;17.60;82.97
40059;SHT31;25763;49.972;8.568;2023-10-19T10:02:15;17.75;82.36
40059;SHT31;25763;49.972;8.568;2023-10-19T10:04:43;17.75;82.28
40059;SHT31;25763;49.972;8.568;2023-10-19T10:07:11;17.77;82.73
40059;SHT31;25763;49.972;8.568;2023-10-19T10:09:38;17.78;82.28
40059;SHT31;25763;49.972;8.568;2023-10-19T10:15:05;17.98;82.44
40059;SHT31;25763;49.972;8.568;2023-10-19T10:17:35;17.99;81.54
40059;SHT31;25763;49.972;8.568;2023-10-19T10:22:43;18.10;81.78
40059;SHT31;25763;49.972;8.568;2023-10-19T10:25:28;18.27;81.41
40059;SHT31;25763;49.972;8.568;2023-10-19T10:27:54;18.26;81.07
40059;SHT31;25763;49.972;8.568;2023-10-19T10:30:21;18.51;81.47
40059;SHT31;25763;49.972;8.568;2023-10-19T10:32:50;18.67;80.85
40059;SHT31;25763;49.972;8.568;2023-10-19T10:38:07;18.64;80.87
40059;SHT31;25763;49.972;8.568;2023-10-19T10:40:47;18.77;79.88
40059;SHT31;25763;49.972;8.568;2023-10-19T10:43:13;18.68;80.23
40059;SHT31;25763;49.972;8.568;2023-10-19T10:45:39;18.58;80.08
40059;SHT31;25763;49.972;8.568;2023-10-19T10:48:11;18.89;79.85
40059;SHT31;25763;49.972;8.568;2023-10-19T10:50:37;19.04;79.64
40059;SHT31;25763;49.972;8.568;2023-10-19T10:53:04;18.99;79.27
40059;SHT31;25763;49.972;8.568;2023-10-19T10:55:30;18.85;78.60
40059;SHT31;25763;49.972;8.568;2023-10-19T10:57:56;18.76;79.10
40059;SHT31;25763;49.972;8.568;2023-10-19T11:00:21;18.68;79.26
40059;SHT31;25763;49.972;8.568;2023-10-19T11:03:02;18.51;79.38
40059;SHT31;25763;49.972;8.568;2023-10-19T11:05:33;18.31;79.66
40059;SHT31;25763;49.972;8.568;2023-10-19T11:10:29;18.21;80.49
40059;SHT31;25763;49.972;8.568;2023-10-19T11:13:05;18.24;80.34
40059;SHT31;25763;49.972;8.568;2023-10-19T11:15:31;18.37;80.44
40059;SHT31;25763;49.972;8.568;2023-10-19T11:17:58;18.54;80.87
40059;SHT31;25763;49.972;8.568;2023-10-19T11:20:25;18.57;80.27
40059;SHT31;25763;49.972;8.568;2023-10-19T11:22:51;18.50;80.12
40059;SHT31;25763;49.972;8.568;2023-10-19T11:25:22;18.52;79.86
40059;SHT31;25763;49.972;8.568;2023-10-19T11:27:47;18.51;80.47
40059;SHT31;25763;49.972;8.568;2023-10-19T11:30:13;18.57;80.18
40059;SHT31;25763;49.972;8.568;2023-10-19T11:32:39;18.51;80.16
40059;SHT31;25763;49.972;8.568;2023-10-19T11:35:04;18.59;80.19
40059;SHT31;25763;49.972;8.568;2023-10-19T11:37:56;18.73;80.15
40059;SHT31;25763;49.972;8.568;2023-10-19T11:40:22;18.58;80.07
40059;SHT31;25763;49.972;8.568;2023-10-19T11:42:48;18.55;80.18
40059;SHT31;25763;49.972;8.568;2023-10-19T11:45:14;18.40;80.16
40059;SHT31;25763;49.972;8.568;2023-10-19T11:47:42;18.61;80.30
40059;SHT31;25763;49.972;8.568;2023-10-19T11:50:08;18.57;80.04
40059;SHT31;25763;49.972;8.568;2023-10-19T11:52:33;18.61;80.26
40059;SHT31;25763;49.972;8.568;2023-10-19T11:54:59;18.57;80.28
40059;SHT31;25763;49.972;8.568;2023-10-19T11:57:24;18.68;80.25
40059;SHT31;25763;49.972;8.568;2023-10-19T11:59:53;18.77;80.40
40059;SHT31;25763;49.972;8.568;2023-10-19T12:02:18;18.83;80.26
40059;SHT31;25763;49.972;8.568;2023-10-19T12:04:44;18.90;80.54
40059;SHT31;25763;49.972;8.568;2023-10-19T12:07:11;18.82;80.01
40059;SHT31;25763;49.972;8.568;2023-10-19T12:09:36;18.97;80.08
40059;SHT31;25763;49.972;8.568;2023-10-19T12:12:02;18.87;79.57
40059;SHT31;25763;49.972;8.568;2023-10-19T12:14:31;18.76;79.80
40059;SHT31;25763;49.972;8.568;2023-10-19T12:16:59;18.72;80.07
40059;SHT31;25763;49.972;8.568;2023-10-19T12:19:27;18.75;80.29
40059;SHT31;25763;49.972;8.568;2023-10-19T12:21:54;18.83;80.29
40059;SHT31;25763;49.972;8.568;2023-10-19T12:24:19;18.89;80.12
40059;SHT31;25763;49.972;8.568;2023-10-19T12:26:46;18.79;80.07
40059;SHT31;25763;49.972;8.568;2023-10-19T12:29:12;18.79;80.37
40059;SHT31;25763;49.972;8.568;2023-10-19T12:31:40;18.71;80.53
40059;SHT31;25763;49.972;8.568;2023-10-19T12:34:06;18.64;80.90
40059;SHT31;25763;49.972;8.568;2023-10-19T12:36:31;18.72;81.16
40059;SHT31;25763;49.972;8.568;2023-10-19T12:38:57;18.62;81.57
40059;SHT31;25763;49.972;8.568;2023-10-19T12:41:23;18.62;81.57
40059;SHT31;25763;49.972;8.568;2023-10-19T12:43:50;18.59;81.69
40059;SHT31;25763;49.972;8.568;2023-10-19T12:46:17;18.47;81.93
40059;SHT31;25763;49.972;8.568;2023-10-19T12:48:44;18.50;81.76
40059;SHT31;25763;49.972;8.568;2023-10-19T12:51:12;18.34;82.30
40059;SHT31;25763;49.972;8.568;2023-10-19T12:53:39;18.41;82.13
40059;SHT31;25763;49.972;8.568;2023-10-19T12:56:07;18.37;82.51
40059;SHT31;25763;49.972;8.568;2023-10-19T12:58:35;18.40;82.45
40059;SHT31;25763;49.972;8.568;2023-10-19T13:01:01;18.38;82.36
40059;SHT31;25763;49.972;8.568;2023-10-19T13:03:30;18.37;82.82
40059;SHT31;25763;49.972;8.568;2023-10-19T13:05:56;18.34;83.04
40059;SHT31;25763;49.972;8.568;2023-10-19T13:08:23;18.33;83.03
40059;SHT31;25763;49.972;8.568;2023-10-19T13:10:53;18.33;83.16
40059;SHT31;25763;49.972;8.568;2023-10-19T13:13:19;18.34;83.48
40059;SHT31;25763;49.972;8.568;2023-10-19T13:15:47;18.26;83.75
40059;SHT31;25763;49.972;8.568;2023-10-19T13:18:13;18.33;83.53
40059;SHT31;25763;49.972;8.568;2023-10-19T13:20:46;18.31;83.83
40059;SHT31;25763;49.972;8.568;2023-10-19T13:23:11;18.28;83.94
40059;SHT31;25763;49.972;8.568;2023-10-19T13:25:37;18.21;83.72
40059;SHT31;25763;49.972;8.568;2023-10-19T13:28:16;18.20;83.47
40059;SHT31;25763;49.972;8.568;2023-10-19T13:30:49;18.12;83.42
40059;SHT31;25763;49.972;8.568;2023-10-19T13:33:16;18.14;83.43
40059;SHT31;25763;49.972;8.568;2023-10-19T13:35:42;18.12;83.50
40059;SHT31;25763;49.972;8.568;2023-10-19T13:38:09;18.05;83.61
40059;SHT31;25763;49.972;8.568;2023-10-19T13:40:38;18.03;84.05
40059;SHT31;25763;49.972;8.568;2023-10-19T13:43:08;18.05;84.23
40059;SHT31;25763;49.972;8.568;2023-10-19T13:45:36;18.10;84.40
40059;SHT31;25763;49.972;8.568;2023-10-19T13:48:02;18.06;84.70
40059;SHT31;25763;49.972;8.568;2023-10-19T13:50:29;18.03;84.48
40059;SHT31;25763;49.972;8.568;2023-10-19T13:52:55;18.05;85.02
40059;SHT31;25763;49.972;8.568;2023-10-19T13:55:25;17.96;85.02
40059;SHT31;25763;49.972;8.568;2023-10-19T13:57:50;17.78;84.72
40059;SHT31;25763;49.972;8.568;2023-10-19T14:00:17;17.65;84.80
40059;SHT31;25763;49.972;8.568;2023-10-19T14:02:58;17.50;84.75
40059;SHT31;25763;49.972;8.568;2023-10-19T14:05:25;17.44;84.77
40059;SHT31;25763;49.972;8.568;2023-10-19T14:07:51;17.40;85.08
40059;SHT31;25763;49.972;8.568;2023-10-19T14:10:17;17.37;85.23
40059;SHT31;25763;49.972;8.568;2023-10-19T14:12:45;17.37;85.29
40059;SHT31;25763;49.972;8.568;2023-10-19T14:15:15;17.37;85.39
40059;SHT31;25763;49.972;8.568;2023-10-19T14:17:43;17.34;85.33
40059;SHT31;25763;49.972;8.568;2023-10-19T14:20:11;17.25;85.27
40059;SHT31;25763;49.972;8.568;2023-10-19T14:22:41;17.22;85.33
40059;SHT31;25763;49.972;8.568;2023-10-19T14:25:07;17.18;85.18
40059;SHT31;25763;49.972;8.568;2023-10-19T14:27:40;17.09;85.13
40059;SHT31;25763;49.972;8.568;2023-10-19T14:30:08;17.04;85.08
40059;SHT31;25763;49.972;8.568;2023-10-19T14:32:37;17.01;85.35
40059;SHT31;25763;49.972;8.568;2023-10-19T14:35:02;16.98;85.37
40059;SHT31;25763;49.972;8.568;2023-10-19T14:37:31;16.98;85.44
40059;SHT31;25763;49.972;8.568;2023-10-19T14:39:56;16.95;85.61
40059;SHT31;25763;49.972;8.568;2023-10-19T14:42:24;16.85;86.06
40059;SHT31;25763;49.972;8.568;2023-10-19T14:44:49;16.90;85.87
40059;SHT31;25763;49.972;8.568;2023-10-19T14:47:15;16.83;85.95
40059;SHT31;25763;49.972;8.568;2023-10-19T14:49:40;16.81;86.03
40059;SHT31;25763;49.972;8.568;2023-10-19T14:52:06;16.83;86.01
40059;SHT31;25763;49.972;8.568;2023-10-19T14:54:31;16.83;86.00
40059;SHT31;25763;49.972;8.568;2023-10-19T14:56:57;16.84;86.19
40059;SHT31;25763;49.972;8.568;2023-10-19T14:59:22;16.80;86.56
40059;SHT31;25763;49.972;8.568;2023-10-19T15:01:47;16.78;86.74
40059;SHT31;25763;49.972;8.568;2023-10-19T15:04:13;16.70;87.06
40059;SHT31;25763;49.972;8.568;2023-10-19T15:06:38;16.57;87.38
40059;SHT31;25763;49.972;8.568;2023-10-19T15:09:04;16.59;87.66
40059;SHT31;25763;49.972;8.568;2023-10-19T15:11:29;16.59;87.79
40059;SHT31;25763;49.972;8.568;2023-10-19T15:13:54;16.46;88.16
40059;SHT31;25763;49.972;8.568;2023-10-19T15:16:20;16.45;88.39
40059;SHT31;25763;49.972;8.568;2023-10-19T15:18:45;16.43;88.72
40059;SHT31;25763;49.972;8.568;2023-10-19T15:21:11;16.36;88.78
40059;SHT31;25763;49.972;8.568;2023-10-19T15:23:39;16.40;88.81
40059;SHT31;25763;49.972;8.568;2023-10-19T15:26:06;16.45;88.72
40059;SHT31;25763;49.972;8.568;2023-10-19T15:28:32;16.50;88.52
40059;SHT31;25763;49.972;8.568;2023-10-19T15:31:01;16.60;88.24
40059;SHT31;25763;49.972;8.568;2023-10-19T15:33:27;16.52;88.43
40059;SHT31;25763;49.972;8.568;2023-10-19T15:35:54;16.55;88.63
40059;SHT31;25763;49.972;8.568;2023-10-19T15:38:21;16.57;88.75
40059;SHT31;25763;49.972;8.568;2023-10-19T15:40:48;16.59;88.93
40059;SHT31;25763;49.972;8.568;2023-10-19T15:43:14;16.61;88.99
40059;SHT31;25763;49.972;8.568;2023-10-19T15:45:40;16.64;89.00